createdAt,value
2018-03-04T00:00:00.541Z,120.97
2018-03-04T00:02:28.024Z,124.13
2018-03-04T00:04:55.562Z,127.27
2018-03-04T00:07:23.103Z,126.77
2018-03-04T00:09:51.005Z,117.27
2018-03-04T00:12:18.652Z,117.40
2018-03-04T00:14:46.443Z,113.50
2018-03-04T00:17:13.944Z,128.83
2018-03-04T00:19:41.447Z,125.50
2018-03-04T00:22:09.368Z,117.60
2018-03-04T00:24:36.906Z,107.30
2018-03-04T00:27:04.422Z,115.80
2018-03-04T00:29:32.324Z,111.50
2018-03-04T00:31:59.878Z,122.40
2018-03-04T00:34:27.786Z,121.53
2018-03-04T00:36:55.308Z,120.40
2018-03-04T00:39:23.259Z,116.30
2018-03-04T00:41:50.746Z,108.57
2018-03-04T00:44:18.243Z,121.13
2018-03-04T00:46:45.745Z,127.13
2018-03-04T00:49:13.229Z,127.13
2018-03-04T00:51:41.157Z,121.00
2018-03-04T00:54:08.652Z,122.03
2018-03-04T00:56:36.513Z,127.00
2018-03-04T00:59:04.032Z,120.07
2018-03-04T01:01:31.505Z,122.33
2018-03-04T01:03:59.008Z,118.30
2018-03-04T01:06:26.907Z,112.57
2018-03-04T01:08:54.393Z,129.83
2018-03-04T01:11:21.865Z,133.43
2018-03-04T01:13:49.357Z,118.63
2018-03-04T01:16:16.852Z,122.43
2018-03-04T01:18:44.346Z,120.63
2018-03-04T01:21:11.849Z,117.13
2018-03-04T01:23:39.352Z,143.23
2018-03-04T01:26:06.823Z,115.77
2018-03-04T01:28:34.351Z,126.10
2018-03-04T01:31:02.339Z,116.47
2018-03-04T01:33:30.294Z,126.53
2018-03-04T01:35:58.197Z,126.30
2018-03-04T01:38:25.698Z,129.17
2018-03-04T01:40:53.225Z,123.20
2018-03-04T01:43:20.971Z,119.47
2018-03-04T01:45:48.954Z,131.13
2018-03-04T01:48:16.834Z,131.63
2018-03-04T01:50:44.348Z,120.93
2018-03-04T01:53:11.862Z,117.60
2018-03-04T01:55:39.349Z,120.23
2018-03-04T01:58:06.835Z,123.10
2018-03-04T02:00:34.351Z,117.10
2018-03-04T02:03:01.911Z,122.33
2018-03-04T02:05:29.452Z,130.90
2018-03-04T02:07:57.362Z,126.80
2018-03-04T02:10:24.858Z,125.07
2018-03-04T02:12:52.322Z,111.03
2018-03-04T02:15:19.904Z,139.77
2018-03-04T02:17:47.786Z,132.60
2018-03-04T02:20:15.244Z,125.63
2018-03-04T02:22:43.124Z,121.63
2018-03-04T02:25:11.087Z,140.33
2018-03-04T02:27:38.985Z,134.60
2018-03-04T02:30:06.548Z,132.03
2018-03-04T02:32:34.006Z,136.53
2018-03-04T02:35:01.483Z,130.13
2018-03-04T02:37:29.010Z,132.80
2018-03-04T02:39:56.870Z,122.73
2018-03-04T02:42:24.730Z,136.23
2018-03-04T02:44:52.197Z,127.13
2018-03-04T02:47:19.662Z,133.00
2018-03-04T02:49:47.168Z,136.67
2018-03-04T02:52:14.637Z,131.67
2018-03-04T02:54:42.123Z,128.60
2018-03-04T02:57:09.962Z,126.70
2018-03-04T02:59:37.431Z,134.33
2018-03-04T03:02:04.893Z,128.90
2018-03-04T03:04:32.427Z,133.23
2018-03-04T03:07:00.375Z,133.73
2018-03-04T03:09:28.269Z,140.80
2018-03-04T03:11:56.208Z,120.07
2018-03-04T03:14:23.798Z,119.20
2018-03-04T03:16:51.758Z,113.33
2018-03-04T03:19:19.244Z,123.67
2018-03-04T03:21:47.199Z,130.90
2018-03-04T03:24:14.668Z,138.53
2018-03-04T03:26:42.618Z,135.57
2018-03-04T03:29:10.190Z,127.13
2018-03-04T03:31:37.746Z,139.10
2018-03-04T03:34:05.222Z,139.50
2018-03-04T03:36:32.717Z,126.40
2018-03-04T03:39:00.213Z,128.87
2018-03-04T03:41:27.691Z,126.53
2018-03-04T03:43:55.182Z,122.33
2018-03-04T03:46:22.674Z,131.50
2018-03-04T03:48:50.204Z,137.37
2018-03-04T03:51:18.107Z,129.60
2018-03-04T03:53:45.572Z,134.47
2018-03-04T03:56:13.067Z,118.67
2018-03-04T03:58:40.582Z,142.00
2018-03-04T04:01:08.436Z,124.60
2018-03-04T04:03:36.299Z,133.17
2018-03-04T04:06:03.765Z,129.27
2018-03-04T04:08:31.682Z,146.77
2018-03-04T04:10:59.145Z,124.97
2018-03-04T04:13:26.802Z,130.87
2018-03-04T04:15:54.273Z,120.10
2018-03-04T04:18:21.744Z,139.83
2018-03-04T04:20:49.217Z,133.93
2018-03-04T04:23:16.698Z,127.43
2018-03-04T04:25:44.338Z,136.73
2018-03-04T04:28:11.814Z,125.40
2018-03-04T04:30:39.291Z,112.93
2018-03-04T04:33:06.781Z,136.10
2018-03-04T04:35:34.645Z,126.77
2018-03-04T04:38:02.525Z,126.17
2018-03-04T04:40:30.398Z,130.37
2018-03-04T04:42:57.898Z,134.30
2018-03-04T04:45:25.396Z,130.53
2018-03-04T04:47:53.269Z,124.67
2018-03-04T04:50:20.763Z,120.03
2018-03-04T04:52:48.226Z,128.60
2018-03-04T04:55:15.705Z,137.37
2018-03-04T04:57:43.190Z,124.03
2018-03-04T05:00:10.882Z,130.77
2018-03-04T05:02:38.378Z,124.20
2018-03-04T05:05:05.874Z,122.67
2018-03-04T05:07:33.355Z,135.77
2018-03-04T05:10:00.846Z,135.27
2018-03-04T05:12:28.713Z,118.70
2018-03-04T05:14:56.202Z,131.63
2018-03-04T05:17:23.752Z,132.60
2018-03-04T05:19:51.613Z,134.70
2018-03-04T05:22:19.504Z,127.83
2018-03-04T05:24:47.373Z,131.17
2018-03-04T05:27:14.849Z,126.03
2018-03-04T05:29:42.328Z,136.53
2018-03-04T05:32:09.814Z,135.90
2018-03-04T05:34:37.399Z,132.77
2018-03-04T05:37:05.296Z,121.70
2018-03-04T05:39:33.151Z,134.87
2018-03-04T05:42:01.031Z,118.73
2018-03-04T05:44:28.906Z,126.83
2018-03-04T05:46:56.377Z,128.63
2018-03-04T05:49:23.896Z,137.37
2018-03-04T05:51:51.376Z,139.13
2018-03-04T05:54:19.255Z,136.03
2018-03-04T05:56:47.217Z,127.67
2018-03-04T05:59:15.110Z,131.47
2018-03-04T06:01:42.961Z,131.43
2018-03-04T06:04:10.842Z,128.67
2018-03-04T06:06:38.705Z,121.43
2018-03-04T06:09:06.645Z,135.73
2018-03-04T06:11:34.255Z,127.07
2018-03-04T06:14:02.136Z,134.57
2018-03-04T06:16:30.335Z,131.33
2018-03-04T06:18:57.805Z,136.07
2018-03-04T06:21:25.289Z,119.63
2018-03-04T06:23:52.855Z,126.43
2018-03-04T06:26:20.332Z,118.57
2018-03-04T06:28:48.296Z,136.47
2018-03-04T06:31:15.782Z,131.67
2018-03-04T06:33:43.732Z,134.77
2018-03-04T06:36:11.290Z,149.37
2018-03-04T06:38:38.858Z,147.40
2018-03-04T06:41:06.358Z,149.70
2018-03-04T06:43:34.234Z,142.37
2018-03-04T06:46:01.726Z,139.97
2018-03-04T06:48:29.468Z,129.40
2018-03-04T06:50:56.995Z,125.97
2018-03-04T06:53:24.507Z,131.07
2018-03-04T06:55:52.010Z,142.10
2018-03-04T06:58:19.462Z,132.40
2018-03-04T07:00:46.931Z,142.80
2018-03-04T07:03:14.411Z,148.83
2018-03-04T07:05:42.038Z,129.93
2018-03-04T07:08:09.519Z,148.17
2018-03-04T07:10:37.047Z,142.90
2018-03-04T07:13:04.577Z,134.20
2018-03-04T07:15:33.001Z,142.40
2018-03-04T07:18:00.514Z,146.00
2018-03-04T07:20:28.106Z,135.93
2018-03-04T07:22:55.741Z,143.03
2018-03-04T07:25:23.670Z,142.97
2018-03-04T07:27:51.227Z,149.13
2018-03-04T07:30:18.781Z,141.67
2018-03-04T07:32:46.426Z,140.87
2018-03-04T07:35:14.731Z,146.47
2018-03-04T07:37:42.260Z,130.80
2018-03-04T07:40:09.785Z,152.20
2018-03-04T07:42:37.338Z,140.20
2018-03-04T07:45:04.853Z,135.20
2018-03-04T07:47:32.754Z,141.23
2018-03-04T07:50:00.274Z,147.87
2018-03-04T07:52:27.806Z,167.57
2018-03-04T07:54:55.350Z,156.20
2018-03-04T07:57:22.924Z,147.13
2018-03-04T07:59:50.471Z,138.23
2018-03-04T08:02:18.029Z,139.80
2018-03-04T08:04:45.556Z,150.17
2018-03-04T08:07:13.644Z,158.03
2018-03-04T08:09:41.584Z,151.83
2018-03-04T08:12:09.207Z,153.57
2018-03-04T08:14:36.858Z,155.63
2018-03-04T08:17:04.769Z,136.13
2018-03-04T08:19:32.344Z,156.93
2018-03-04T08:21:59.887Z,149.10
2018-03-04T08:24:37.361Z,154.17
2018-03-04T08:27:16.716Z,153.57
2018-03-04T08:29:44.310Z,149.13
2018-03-04T08:32:11.935Z,139.00
2018-03-04T08:34:39.484Z,143.63
2018-03-04T08:37:07.478Z,139.07
2018-03-04T08:39:35.031Z,152.10
2018-03-04T08:42:02.549Z,142.27
2018-03-04T08:44:30.854Z,132.70
2018-03-04T08:46:58.795Z,141.57
2018-03-04T08:49:26.721Z,150.70
2018-03-04T08:51:54.213Z,133.73
2018-03-04T08:54:21.837Z,152.60
2018-03-04T08:56:49.952Z,149.03
2018-03-04T08:59:17.490Z,151.57
2018-03-04T09:01:45.064Z,136.97
2018-03-04T09:04:12.560Z,150.30
2018-03-04T09:06:40.098Z,143.13
2018-03-04T09:09:07.667Z,141.60
2018-03-04T09:11:35.179Z,164.10
2018-03-04T09:14:03.108Z,157.77
2018-03-04T09:16:30.669Z,156.50
2018-03-04T09:18:58.233Z,154.00
2018-03-04T09:21:25.740Z,168.63
2018-03-04T09:23:53.706Z,170.60
2018-03-04T09:26:21.649Z,181.37
2018-03-04T09:28:49.508Z,173.43
2018-03-04T09:31:17.591Z,161.23
2018-03-04T09:33:45.123Z,178.13
2018-03-04T09:36:12.664Z,164.70
2018-03-04T09:38:40.613Z,159.40
2018-03-04T09:41:08.132Z,164.53
2018-03-04T09:43:35.684Z,154.00
2018-03-04T09:46:03.220Z,163.27
2018-03-04T09:48:31.125Z,165.20
2018-03-04T09:50:58.653Z,166.57
2018-03-04T09:53:26.587Z,151.57
2018-03-04T09:55:54.105Z,160.20
2018-03-04T09:58:22.012Z,151.83
2018-03-04T10:00:49.648Z,157.83
2018-03-04T10:03:17.652Z,134.73
2018-03-04T10:05:45.213Z,151.50
2018-03-04T10:08:12.745Z,132.57
2018-03-04T10:10:40.803Z,128.83
2018-03-04T10:13:08.845Z,131.93
2018-03-04T10:15:36.450Z,146.30
2018-03-04T10:18:04.409Z,135.20
2018-03-04T10:20:32.126Z,122.30
2018-03-04T10:22:59.680Z,138.67
2018-03-04T10:25:27.206Z,131.30
2018-03-04T10:27:55.153Z,119.70
2018-03-04T10:30:22.801Z,132.97
2018-03-04T10:32:50.466Z,128.40
2018-03-04T10:35:18.476Z,116.57
2018-03-04T10:37:46.100Z,129.27
2018-03-04T10:40:13.674Z,121.23
2018-03-04T10:42:41.472Z,117.03
2018-03-04T10:45:09.689Z,113.23
2018-03-04T10:47:38.582Z,119.60
2018-03-04T10:50:06.887Z,103.87
2018-03-04T10:52:34.860Z,108.73
2018-03-04T10:55:02.638Z,96.63
2018-03-04T10:57:30.399Z,112.70
2018-03-04T10:59:58.267Z,107.70
2018-03-04T11:02:31.529Z,98.27
2018-03-04T11:04:59.693Z,117.23
2018-03-04T11:07:27.322Z,102.93
2018-03-04T11:09:55.753Z,120.27
2018-03-04T11:12:24.071Z,116.17
2018-03-04T11:14:52.316Z,106.80
2018-03-04T11:17:25.124Z,100.77
2018-03-04T11:19:52.982Z,113.43
2018-03-04T11:22:26.708Z,105.77
2018-03-04T11:24:54.338Z,107.47
2018-03-04T11:27:22.752Z,111.27
2018-03-04T11:29:50.359Z,117.53
2018-03-04T11:32:17.925Z,108.00
2018-03-04T11:34:45.647Z,130.03
2018-03-04T11:37:13.525Z,107.13
2018-03-04T11:39:41.176Z,127.70
2018-03-04T11:42:08.723Z,109.23
2018-03-04T11:44:36.806Z,112.10
2018-03-04T11:47:04.490Z,129.83
2018-03-04T11:49:32.056Z,117.90
2018-03-04T11:51:59.639Z,125.20
2018-03-04T11:54:27.276Z,117.67
2018-03-04T11:56:54.881Z,123.00
2018-03-04T11:59:22.885Z,120.27
2018-03-04T12:01:50.464Z,122.27
2018-03-04T12:04:18.035Z,125.83
2018-03-04T12:06:46.007Z,131.47
2018-03-04T12:09:13.772Z,123.00
2018-03-04T12:11:41.718Z,123.57
2018-03-04T12:14:09.284Z,126.57
2018-03-04T12:16:36.880Z,125.67
2018-03-04T12:19:07.853Z,124.23
2018-03-04T12:21:35.482Z,110.43
2018-03-04T12:24:03.052Z,121.90
2018-03-04T12:26:30.730Z,111.30
2018-03-04T12:28:58.371Z,112.90
2018-03-04T12:31:26.359Z,117.83
2018-03-04T12:33:54.367Z,122.60
2018-03-04T12:36:23.929Z,120.50
2018-03-04T12:38:51.915Z,118.43
2018-03-04T12:41:20.052Z,116.43
2018-03-04T12:43:48.032Z,104.37
2018-03-04T12:46:15.575Z,112.87
2018-03-04T12:48:43.163Z,124.10
2018-03-04T12:51:10.797Z,113.73
2018-03-04T12:53:38.372Z,114.70
2018-03-04T12:56:05.980Z,116.83
2018-03-04T12:58:33.530Z,111.60
2018-03-04T13:01:01.259Z,100.47
2018-03-04T13:03:28.889Z,105.60
2018-03-04T13:05:56.829Z,100.87
2018-03-04T13:08:24.456Z,108.63
2018-03-04T13:10:52.083Z,112.10
2018-03-04T13:13:20.306Z,109.50
2018-03-04T13:15:47.895Z,103.30
2018-03-04T13:18:15.873Z,97.30
2018-03-04T13:20:43.503Z,105.77
2018-03-04T13:23:11.133Z,102.37
2018-03-04T13:25:39.134Z,100.40
2018-03-04T13:28:06.759Z,95.97
2018-03-04T13:30:34.354Z,102.00
2018-03-04T13:33:01.924Z,110.23
2018-03-04T13:35:29.594Z,98.83
2018-03-04T13:37:57.208Z,103.80
2018-03-04T13:40:24.746Z,105.90
2018-03-04T13:42:52.328Z,92.40
2018-03-04T13:45:19.910Z,90.53
2018-03-04T13:47:47.925Z,98.23
2018-03-04T13:53:03.096Z,95.90
2018-03-04T13:55:32.816Z,82.60
2018-03-04T13:58:00.384Z,94.57
2018-03-04T14:00:28.077Z,90.80
2018-03-04T14:02:56.580Z,89.23
2018-03-04T14:05:24.313Z,95.10
2018-03-04T14:07:52.776Z,89.03
2018-03-04T14:10:21.436Z,90.23
2018-03-04T14:12:49.156Z,75.50
2018-03-04T14:15:16.872Z,74.93
2018-03-04T14:17:44.470Z,77.43
2018-03-04T14:20:12.164Z,79.23
2018-03-04T14:22:39.767Z,75.33
2018-03-04T14:25:07.324Z,69.93
2018-03-04T14:27:36.138Z,74.60
2018-03-04T14:30:03.845Z,70.40
2018-03-04T14:32:33.472Z,66.57
2018-03-04T14:35:01.640Z,73.13
2018-03-04T14:37:30.151Z,65.87
2018-03-04T14:39:58.097Z,64.37
2018-03-04T14:42:25.862Z,66.77
2018-03-04T14:44:53.464Z,65.00
2018-03-04T14:47:21.112Z,73.53
2018-03-04T14:49:48.768Z,63.20
2018-03-04T14:52:16.522Z,68.80
2018-03-04T14:54:44.405Z,73.27
2018-03-04T14:57:12.259Z,68.43
2018-03-04T14:59:40.145Z,65.93
2018-03-04T15:02:07.913Z,65.20
2018-03-04T15:04:35.491Z,73.83
2018-03-04T15:07:03.542Z,72.30
2018-03-04T15:09:31.197Z,71.83
2018-03-04T15:11:59.034Z,71.93
2018-03-04T15:14:27.213Z,67.90
2018-03-04T15:16:55.072Z,67.37
2018-03-04T15:19:22.658Z,64.97
2018-03-04T15:21:52.164Z,61.53
2018-03-04T15:24:20.800Z,65.57
2018-03-04T15:26:48.466Z,72.00
2018-03-04T15:29:16.719Z,74.43
2018-03-04T15:31:44.952Z,68.13
2018-03-04T15:34:13.649Z,64.53
2018-03-04T15:36:41.769Z,67.97
2018-03-04T15:39:09.782Z,62.80
2018-03-04T15:41:37.795Z,59.17
2018-03-04T15:44:05.597Z,65.03
2018-03-04T15:46:33.216Z,63.27
2018-03-04T15:49:01.148Z,65.77
2018-03-04T15:51:30.502Z,70.23
2018-03-04T15:53:58.111Z,67.90
2018-03-04T15:56:26.103Z,66.73
2018-03-04T15:58:54.156Z,58.47
2018-03-04T16:01:22.568Z,61.93
2018-03-04T16:03:51.407Z,60.37
2018-03-04T16:06:19.143Z,62.50
2018-03-04T16:08:46.874Z,68.70
2018-03-04T16:11:14.489Z,62.93
2018-03-04T16:13:42.061Z,66.90
2018-03-04T16:16:10.285Z,68.67
2018-03-04T16:18:37.902Z,72.97
2018-03-04T16:21:05.546Z,56.97
2018-03-04T16:23:33.140Z,61.97
2018-03-04T16:26:01.377Z,64.00
2018-03-04T16:28:28.982Z,76.07
2018-03-04T16:30:57.146Z,60.93
2018-03-04T16:33:25.485Z,65.07
2018-03-04T16:35:53.265Z,60.77
2018-03-04T16:38:23.100Z,69.57
2018-03-04T16:40:50.773Z,59.33
2018-03-04T16:43:18.408Z,58.37
2018-03-04T16:45:46.094Z,53.60
2018-03-04T16:48:13.825Z,54.27
2018-03-04T16:50:41.480Z,45.13
2018-03-04T16:53:09.594Z,52.60
2018-03-04T16:55:37.245Z,52.60
2018-03-04T16:58:05.088Z,57.27
2018-03-04T17:00:35.428Z,44.00
2018-03-04T17:03:03.441Z,50.13
2018-03-04T17:05:31.212Z,41.80
2018-03-04T17:07:58.959Z,45.30
2018-03-04T17:10:26.633Z,45.33
2018-03-04T17:12:54.332Z,37.77
2018-03-04T17:15:22.412Z,41.37
2018-03-04T17:17:50.718Z,38.00
2018-03-04T17:20:18.438Z,45.90
2018-03-04T17:35:51.696Z,35.60
2018-03-04T17:38:19.308Z,30.17
2018-03-04T17:40:47.005Z,35.90
2018-03-04T17:43:15.113Z,33.23
2018-03-04T17:45:43.849Z,38.80
2018-03-04T17:48:13.031Z,29.63
2018-03-04T17:50:40.747Z,29.90
2018-03-04T17:53:08.943Z,32.27
2018-03-04T17:55:37.131Z,33.43
2018-03-04T17:58:04.793Z,33.80
2018-03-04T18:00:32.620Z,40.50
2018-03-04T18:03:00.460Z,39.07
2018-03-04T18:05:28.117Z,44.13
2018-03-04T18:07:56.575Z,37.43
2018-03-04T18:10:24.229Z,49.23
2018-03-04T18:12:51.914Z,44.90
2018-03-04T18:15:19.594Z,53.10
2018-03-04T18:17:47.158Z,48.13
2018-03-04T18:20:14.797Z,45.10
2018-03-04T18:22:42.745Z,48.27
2018-03-04T18:25:10.388Z,45.23
2018-03-04T18:27:38.102Z,46.80
2018-03-04T18:30:08.435Z,47.77
2018-03-04T18:32:36.112Z,53.43
2018-03-04T18:35:03.732Z,57.67
2018-03-04T18:37:31.368Z,58.63
2018-03-04T18:39:59.219Z,58.90
2018-03-04T18:42:26.886Z,60.77
2018-03-04T18:44:54.462Z,60.33
2018-03-04T18:47:22.311Z,65.30
2018-03-04T18:49:49.908Z,57.60
2018-03-04T18:52:19.055Z,60.60
2018-03-04T18:54:47.016Z,62.17
2018-03-04T18:57:14.572Z,52.97
2018-03-04T18:59:42.569Z,66.03
2018-03-04T19:02:14.858Z,68.17
2018-03-04T19:04:42.719Z,67.27
2018-03-04T19:07:10.416Z,70.93
2018-03-04T19:09:38.060Z,81.20
2018-03-04T19:12:06.453Z,72.53
2018-03-04T19:14:34.298Z,60.30
2018-03-04T19:17:01.903Z,63.50
2018-03-04T19:19:29.767Z,68.30
2018-03-04T19:21:57.520Z,55.07
2018-03-04T19:24:26.726Z,42.63
2018-03-04T19:26:54.533Z,52.33
2018-03-04T19:29:22.266Z,52.50
2018-03-04T19:31:49.994Z,50.93
2018-03-04T19:34:18.076Z,43.80
2018-03-04T19:36:45.759Z,48.00
2018-03-04T19:39:13.491Z,53.10
2018-03-04T19:41:41.385Z,47.63
2018-03-04T19:44:09.086Z,48.90
2018-03-04T19:46:36.923Z,52.47
2018-03-04T19:49:04.667Z,47.50
2018-03-04T19:51:32.335Z,55.97
2018-03-04T19:54:00.075Z,42.07
2018-03-04T19:56:27.773Z,44.33
2018-03-04T19:58:55.412Z,46.50
2018-03-04T20:01:23.176Z,46.40
2018-03-04T20:03:50.755Z,52.10
2018-03-04T20:06:18.508Z,46.60
2018-03-04T20:08:46.036Z,43.50
2018-03-04T20:11:16.520Z,41.17
2018-03-04T20:13:44.120Z,45.00
2018-03-04T20:16:13.425Z,43.43
2018-03-04T20:18:41.400Z,44.00
2018-03-04T20:21:09.529Z,56.33
2018-03-04T20:23:37.196Z,46.73
2018-03-04T20:26:04.906Z,46.50
2018-03-04T20:28:32.700Z,46.80
2018-03-04T20:31:00.308Z,37.70
2018-03-04T20:33:28.088Z,44.00
2018-03-04T20:35:55.678Z,43.07
2018-03-04T20:38:23.784Z,41.57
2018-03-04T20:40:51.388Z,42.47
2018-03-04T20:43:19.067Z,42.97
2018-03-04T20:45:46.614Z,39.20
2018-03-04T20:48:14.354Z,43.37
2018-03-04T20:50:42.388Z,45.13
2018-03-04T20:53:09.991Z,46.43
2018-03-04T20:55:37.742Z,47.07
2018-03-04T20:58:06.621Z,48.80
2018-03-04T21:00:35.439Z,45.17
2018-03-04T21:03:03.357Z,39.43
2018-03-04T21:05:31.060Z,35.50
2018-03-04T21:07:59.482Z,39.83
2018-03-04T21:10:27.062Z,44.23
2018-03-04T21:12:54.710Z,40.13
2018-03-04T21:15:22.341Z,44.83
2018-03-04T21:17:49.994Z,42.37
2018-03-04T21:20:17.897Z,45.30
2018-03-04T21:22:45.478Z,43.10
2018-03-04T21:25:13.104Z,42.53
2018-03-04T21:27:41.527Z,42.90
2018-03-04T21:30:09.232Z,45.40
2018-03-04T21:32:36.810Z,49.43
2018-03-04T21:35:05.099Z,47.67
2018-03-04T21:37:33.244Z,44.87
2018-03-04T21:40:01.163Z,45.77
2018-03-04T21:42:28.739Z,50.33
2018-03-04T21:44:56.375Z,59.27
2018-03-04T21:47:24.374Z,61.97
2018-03-04T21:49:51.964Z,55.00
2018-03-04T21:52:19.500Z,63.83
2018-03-04T21:54:47.063Z,57.83
2018-03-04T21:57:14.655Z,62.87
2018-03-04T21:59:44.072Z,61.23
2018-03-04T22:02:11.761Z,56.40
2018-03-04T22:04:39.471Z,61.60
2018-03-04T22:07:07.025Z,58.70
2018-03-04T22:09:34.613Z,68.90
2018-03-04T22:12:02.203Z,59.93
2018-03-04T22:14:29.822Z,61.97
2018-03-04T22:16:57.767Z,64.17
2018-03-04T22:19:25.346Z,57.67
2018-03-04T22:21:53.503Z,56.20
2018-03-04T22:24:21.234Z,58.87
2018-03-04T22:26:48.834Z,56.17
2018-03-04T22:29:16.522Z,67.67
2018-03-04T22:31:44.581Z,77.77
2018-03-04T22:34:12.189Z,65.87
2018-03-04T22:36:40.046Z,62.53
2018-03-04T22:39:07.955Z,69.77
2018-03-04T22:41:35.506Z,66.57
2018-03-04T22:44:03.132Z,63.17
2018-03-04T22:46:31.242Z,73.20
2018-03-04T22:48:58.788Z,76.00
2018-03-04T22:51:26.688Z,66.43
2018-03-04T22:53:54.198Z,74.53
2018-03-04T22:56:21.700Z,93.53
2018-03-04T22:58:49.467Z,79.90
2018-03-04T23:01:16.979Z,89.10
2018-03-04T23:03:45.572Z,84.27
2018-03-04T23:06:13.115Z,100.77
2018-03-04T23:08:40.611Z,91.33
2018-03-04T23:11:08.210Z,99.17
2018-03-04T23:13:35.730Z,101.53
2018-03-04T23:16:03.269Z,102.53
2018-03-04T23:18:30.805Z,80.40
2018-03-04T23:20:58.323Z,92.97
2018-03-04T23:23:26.242Z,91.17
2018-03-04T23:25:53.785Z,90.23
2018-03-04T23:28:21.688Z,103.07
2018-03-04T23:30:49.209Z,95.03
2018-03-04T23:33:17.098Z,83.90
2018-03-04T23:35:45.107Z,90.10
2018-03-04T23:38:12.636Z,81.07
2018-03-04T23:40:40.151Z,93.57
2018-03-04T23:43:07.657Z,81.47
2018-03-04T23:45:35.560Z,91.07
2018-03-04T23:48:03.091Z,84.60
2018-03-04T23:50:30.957Z,86.33
2018-03-04T23:52:58.929Z,89.53
2018-03-04T23:55:26.887Z,85.53
2018-03-04T23:57:54.408Z,75.87
